Time;durP1;ratioP1;P1;durP2;ratioP2;P2;SDS_P1;SDS_P2;PMS_P1;PMS_P2;Temp;Humidity;BMP_temperature;BMP_pressure;BME280_temperature;BME280_humidity;BME280_pressure;Samples;Min_cycle;Max_cycle;Signal;HPM_P1;HPM_P2
2023/03/24 00:02:15;;;;;;;7.60;1.40;;;;;;;-128.00;-1.00;-1.00;98129;295;1003375;-34
2023/03/24 00:04:41;;;;;;;2.60;1.20;;;;;;;-128.00;-1.00;-1.00;97944;295;1003753;-29
2023/03/24 00:07:13;;;;;;;4.40;1.40;;;;;;;-128.00;-1.00;-1.00;97905;295;1003365;-32
2023/03/24 00:09:40;;;;;;;3.50;1.70;;;;;;;-128.00;-1.00;-1.00;97839;298;1003376;-30
2023/03/24 00:12:08;;;;;;;7.50;4.80;;;;;;;-128.00;-1.00;-1.00;98060;295;1003487;-36
2023/03/24 00:14:37;;;;;;;13.70;6.50;;;;;;;-128.00;-1.00;-1.00;97992;295;1005305;-38
2023/03/24 00:17:05;;;;;;;10.90;3.60;;;;;;;-128.00;-1.00;-1.00;98026;295;1003136;-34
2023/03/24 00:19:32;;;;;;;4.30;2.40;;;;;;;-128.00;-1.00;-1.00;97881;296;1003093;-30
2023/03/24 00:21:59;;;;;;;2.40;1.70;;;;;;;-128.00;-1.00;-1.00;97976;295;1003487;-34
2023/03/24 00:24:25;;;;;;;7.90;5.10;;;;;;;-128.00;-1.00;-1.00;97902;295;1003861;-30
2023/03/24 00:26:51;;;;;;;8.60;5.30;;;;;;;-128.00;-1.00;-1.00;98080;295;1002615;-33
2023/03/24 00:29:16;;;;;;;8.80;4.30;;;;;;;-128.00;-1.00;-1.00;97801;284;1003610;-36
2023/03/24 00:31:42;;;;;;;8.00;2.90;;;;;;;-128.00;-1.00;-1.00;98076;295;1003628;-30
2023/03/24 00:34:09;;;;;;;4.30;1.70;;;;;;;-128.00;-1.00;-1.00;97909;295;1003220;-32
2023/03/24 00:36:35;;;;;;;8.30;1.50;;;;;;;-128.00;-1.00;-1.00;97896;295;1003725;-33
2023/03/24 00:39:01;;;;;;;2.10;1.50;;;;;;;-128.00;-1.00;-1.00;97930;295;1004766;-33
2023/03/24 00:41:27;;;;;;;2.00;1.30;;;;;;;-128.00;-1.00;-1.00;97983;295;1003314;-39
2023/03/24 00:43:55;;;;;;;3.20;1.30;;;;;;;-128.00;-1.00;-1.00;97859;296;1002772;-39
2023/03/24 00:46:29;;;;;;;4.10;2.60;;;;;;;-128.00;-1.00;-1.00;98041;294;1003863;-29
2023/03/24 00:49:01;;;;;;;1.90;1.40;;;;;;;-128.00;-1.00;-1.00;97941;295;1003665;-36
2023/03/24 00:51:28;;;;;;;3.90;2.10;;;;;;;-128.00;-1.00;-1.00;97832;295;1002721;-36
2023/03/24 00:53:56;;;;;;;2.10;1.30;;;;;;;-128.00;-1.00;-1.00;97873;295;1003068;-30
2023/03/24 00:56:25;;;;;;;6.80;1.40;;;;;;;-128.00;-1.00;-1.00;97859;295;1003091;-34
2023/03/24 00:58:53;;;;;;;1.80;1.20;;;;;;;-128.00;-1.00;-1.00;97970;295;1002958;-34
2023/03/24 01:01:20;;;;;;;8.20;2.10;;;;;;;-128.00;-1.00;-1.00;97903;295;1003526;-30
2023/03/24 01:03:49;;;;;;;3.50;1.10;;;;;;;-128.00;-1.00;-1.00;97794;283;1004068;-30
2023/03/24 01:06:17;;;;;;;6.40;1.50;;;;;;;-128.00;-1.00;-1.00;97974;295;1003224;-34
2023/03/24 01:08:44;;;;;;;2.60;1.70;;;;;;;-128.00;-1.00;-1.00;97925;295;1003806;-34
2023/03/24 01:11:11;;;;;;;2.30;1.30;;;;;;;-128.00;-1.00;-1.00;97990;295;1003808;-34
2023/03/24 01:13:37;;;;;;;2.80;1.30;;;;;;;-128.00;-1.00;-1.00;97927;295;1002924;-30
2023/03/24 01:16:03;;;;;;;2.60;1.80;;;;;;;-128.00;-1.00;-1.00;97886;295;1002724;-30
2023/03/24 01:18:29;;;;;;;18.40;2.00;;;;;;;-128.00;-1.00;-1.00;97873;287;1004315;-32
2023/03/24 01:20:54;;;;;;;3.00;1.30;;;;;;;-128.00;-1.00;-1.00;97814;295;1003126;-37
2023/03/24 01:23:22;;;;;;;5.50;1.70;;;;;;;-128.00;-1.00;-1.00;97836;295;1003777;-30
2023/03/24 01:25:49;;;;;;;8.10;1.50;;;;;;;-128.00;-1.00;-1.00;97981;295;1002776;-34
2023/03/24 01:28:20;;;;;;;3.90;1.10;;;;;;;-128.00;-1.00;-1.00;97774;295;1003262;-33
2023/03/24 01:30:45;;;;;;;3.40;1.70;;;;;;;-128.00;-1.00;-1.00;97983;295;1002582;-34
2023/03/24 01:33:11;;;;;;;2.70;1.50;;;;;;;-128.00;-1.00;-1.00;97946;288;1002900;-34
2023/03/24 01:35:37;;;;;;;2.70;1.40;;;;;;;-128.00;-1.00;-1.00;97757;295;1003326;-34
2023/03/24 01:38:07;;;;;;;3.30;1.50;;;;;;;-128.00;-1.00;-1.00;97872;285;1003094;-34
2023/03/24 01:40:34;;;;;;;13.30;1.10;;;;;;;-128.00;-1.00;-1.00;97898;295;1003393;-30
2023/03/24 01:43:00;;;;;;;2.20;1.70;;;;;;;-128.00;-1.00;-1.00;97987;295;1003249;-33
2023/03/24 01:45:43;;;;;;;2.20;1.40;;;;;;;-128.00;-1.00;-1.00;97837;295;1003513;-32
2023/03/24 01:48:18;;;;;;;2.50;1.50;;;;;;;-128.00;-1.00;-1.00;98024;295;1004014;-34
2023/03/24 01:50:45;;;;;;;4.80;2.00;;;;;;;-128.00;-1.00;-1.00;97914;295;1002726;-32
2023/03/24 01:53:11;;;;;;;2.20;1.60;;;;;;;-128.00;-1.00;-1.00;97984;295;1003447;-36
2023/03/24 01:55:41;;;;;;;2.60;1.20;;;;;;;-128.00;-1.00;-1.00;97984;295;1004157;-34
2023/03/24 01:58:07;;;;;;;1.80;1.20;;;;;;;-128.00;-1.00;-1.00;97787;295;1003902;-33
2023/03/24 02:00:32;;;;;;;4.50;1.60;;;;;;;-128.00;-1.00;-1.00;98023;295;1003075;-34
2023/03/24 02:03:02;;;;;;;2.30;1.50;;;;;;;-128.00;-1.00;-1.00;97851;287;1004038;-31
2023/03/24 02:05:29;;;;;;;4.00;1.80;;;;;;;-128.00;-1.00;-1.00;97998;295;1002954;-30
2023/03/24 02:08:05;;;;;;;3.90;1.90;;;;;;;-128.00;-1.00;-1.00;97788;295;1004450;-30
2023/03/24 02:10:32;;;;;;;2.10;1.60;;;;;;;-128.00;-1.00;-1.00;97928;295;1003304;-34
2023/03/24 02:12:58;;;;;;;3.20;1.80;;;;;;;-128.00;-1.00;-1.00;97890;295;1003475;-34
2023/03/24 02:15:24;;;;;;;4.20;1.60;;;;;;;-128.00;-1.00;-1.00;98006;296;1003686;-35
2023/03/24 02:18:08;;;;;;;2.50;1.80;;;;;;;-128.00;-1.00;-1.00;97890;295;1002803;-34
2023/03/24 02:20:55;;;;;;;2.10;1.30;;;;;;;-128.00;-1.00;-1.00;97910;295;1003437;-29
2023/03/24 02:23:33;;;;;;;3.60;1.80;;;;;;;-128.00;-1.00;-1.00;97980;295;1003008;-31
2023/03/24 02:26:23;;;;;;;2.70;1.70;;;;;;;-128.00;-1.00;-1.00;97846;295;1003159;-37
2023/03/24 02:29:06;;;;;;;3.10;1.50;;;;;;;-128.00;-1.00;-1.00;97977;295;1003270;-33
2023/03/24 02:31:50;;;;;;;5.00;1.80;;;;;;;-128.00;-1.00;-1.00;97931;295;1003457;-36
2023/03/24 02:34:35;;;;;;;5.80;1.70;;;;;;;-128.00;-1.00;-1.00;97940;296;1003260;-34
2023/03/24 02:37:29;;;;;;;11.70;2.00;;;;;;;-128.00;-1.00;-1.00;98036;295;1004321;-34
2023/03/24 02:40:14;;;;;;;2.30;0.90;;;;;;;-128.00;-1.00;-1.00;98012;295;1003613;-30
2023/03/24 02:43:07;;;;;;;3.40;2.00;;;;;;;-128.00;-1.00;-1.00;97866;295;1002771;-35
2023/03/24 02:45:43;;;;;;;3.10;1.90;;;;;;;-128.00;-1.00;-1.00;98027;295;1003163;-35
2023/03/24 02:48:18;;;;;;;3.00;1.90;;;;;;;-128.00;-1.00;-1.00;97888;295;1004934;-30
2023/03/24 02:51:10;;;;;;;2.60;1.30;;;;;;;-128.00;-1.00;-1.00;97924;295;1002970;-30
2023/03/24 02:54:08;;;;;;;2.50;1.50;;;;;;;-128.00;-1.00;-1.00;97877;296;1002627;-29
2023/03/24 02:56:43;;;;;;;3.50;1.30;;;;;;;-128.00;-1.00;-1.00;98023;295;1003193;-36
2023/03/24 02:59:11;;;;;;;3.60;1.80;;;;;;;-128.00;-1.00;-1.00;97893;283;1005013;-32
2023/03/24 03:01:53;;;;;;;2.10;0.80;;;;;;;-128.00;-1.00;-1.00;97945;295;1003163;-34
2023/03/24 03:04:25;;;;;;;4.00;1.90;;;;;;;-128.00;-1.00;-1.00;98023;295;1004281;-30
2023/03/24 03:06:55;;;;;;;2.50;1.20;;;;;;;-128.00;-1.00;-1.00;97853;285;1004823;-34
2023/03/24 03:09:21;;;;;;;3.80;1.90;;;;;;;-128.00;-1.00;-1.00;98020;295;1003457;-29
2023/03/24 03:11:49;;;;;;;2.90;1.70;;;;;;;-128.00;-1.00;-1.00;97997;295;1002667;-33
2023/03/24 03:14:19;;;;;;;2.90;1.30;;;;;;;-128.00;-1.00;-1.00;97844;295;1003677;-29
2023/03/24 03:16:58;;;;;;;4.70;1.70;;;;;;;-128.00;-1.00;-1.00;97885;295;1002781;-30
2023/03/24 03:19:29;;;;;;;7.30;1.50;;;;;;;-128.00;-1.00;-1.00;97849;295;1004744;-36
2023/03/24 03:21:55;;;;;;;2.60;1.40;;;;;;;-128.00;-1.00;-1.00;97909;295;1002997;-33
2023/03/24 03:24:25;;;;;;;3.30;1.90;;;;;;;-128.00;-1.00;-1.00;97835;287;1003167;-31
2023/03/24 03:26:54;;;;;;;2.70;1.90;;;;;;;-128.00;-1.00;-1.00;97885;295;1003680;-30
2023/03/24 03:29:20;;;;;;;3.50;1.70;;;;;;;-128.00;-1.00;-1.00;97964;285;1002399;-36
2023/03/24 03:31:58;;;;;;;2.90;1.60;;;;;;;-128.00;-1.00;-1.00;97977;295;1004416;-31
2023/03/24 03:34:41;;;;;;;3.30;1.90;;;;;;;-128.00;-1.00;-1.00;97946;295;1003806;-31
2023/03/24 03:37:13;;;;;;;2.60;0.90;;;;;;;-128.00;-1.00;-1.00;98033;295;1003360;-35
2023/03/24 03:39:41;;;;;;;3.70;1.50;;;;;;;-128.00;-1.00;-1.00;97852;295;1003570;-35
2023/03/24 03:42:08;;;;;;;2.80;1.30;;;;;;;-128.00;-1.00;-1.00;97900;295;1002697;-34
2023/03/24 03:44:34;;;;;;;0.90;0.80;;;;;;;-128.00;-1.00;-1.00;97903;295;1003253;-33
2023/03/24 03:46:59;;;;;;;1.60;1.20;;;;;;;-128.00;-1.00;-1.00;97833;295;1002909;-35
2023/03/24 03:49:25;;;;;;;1.80;1.20;;;;;;;-128.00;-1.00;-1.00;97871;295;1002982;-30
2023/03/24 03:51:50;;;;;;;4.00;1.50;;;;;;;-128.00;-1.00;-1.00;97863;295;1004353;-34
2023/03/24 03:54:16;;;;;;;1.80;1.20;;;;;;;-128.00;-1.00;-1.00;97870;295;1002835;-34
2023/03/24 03:56:42;;;;;;;1.30;0.80;;;;;;;-128.00;-1.00;-1.00;97821;287;1003216;-29
2023/03/24 03:59:09;;;;;;;4.70;1.10;;;;;;;-128.00;-1.00;-1.00;97831;295;1002729;-33
2023/03/24 04:01:35;;;;;;;2.50;0.80;;;;;;;-128.00;-1.00;-1.00;97733;295;1003369;-29
2023/03/24 04:04:19;;;;;;;2.10;1.10;;;;;;;-128.00;-1.00;-1.00;97926;295;1003015;-34
2023/03/24 04:07:09;;;;;;;3.00;0.90;;;;;;;-128.00;-1.00;-1.00;98070;295;1003207;-36
2023/03/24 04:09:59;;;;;;;2.20;1.30;;;;;;;-128.00;-1.00;-1.00;97915;295;1003081;-32
2023/03/24 04:12:40;;;;;;;2.20;1.20;;;;;;;-128.00;-1.00;-1.00;97843;295;1003226;-38
2023/03/24 04:15:23;;;;;;;2.60;1.30;;;;;;;-128.00;-1.00;-1.00;98033;295;1003465;-32
2023/03/24 04:18:13;;;;;;;2.50;1.90;;;;;;;-128.00;-1.00;-1.00;97846;295;1003608;-30
2023/03/24 04:21:01;;;;;;;3.30;1.90;;;;;;;-128.00;-1.00;-1.00;97829;285;1003105;-35
2023/03/24 04:23:49;;;;;;;2.60;1.80;;;;;;;-128.00;-1.00;-1.00;97937;295;1003367;-34
2023/03/24 04:26:25;;;;;;;5.60;2.10;;;;;;;-128.00;-1.00;-1.00;97852;296;1003703;-36
2023/03/24 04:29:16;;;;;;;3.60;2.40;;;;;;;-128.00;-1.00;-1.00;97918;295;1004421;-29
2023/03/24 04:31:57;;;;;;;3.90;2.10;;;;;;;-128.00;-1.00;-1.00;97955;295;1003333;-34
2023/03/24 04:34:28;;;;;;;3.20;2.20;;;;;;;-128.00;-1.00;-1.00;97908;295;1004722;-30
2023/03/24 05:14:43;;;;;;;6.30;4.20;;;;;;;-100.49;19.20;19712.54;80493;296;3003547;-32
2023/03/24 05:17:09;;;;;;;2.10;1.90;;;;;;;-128.00;-1.00;-1.00;18139;349;7505904;-32
2023/03/24 05:19:36;;;;;;;4.70;2.70;;;;;;;-128.00;-1.00;-1.00;18470;296;7504408;-37
2023/03/24 05:22:02;;;;;;;2.60;2.20;;;;;;;-128.00;-1.00;-1.00;18485;295;7506378;-33
2023/03/24 05:24:27;;;;;;;2.60;2.20;;;;;;;-128.00;-1.00;-1.00;18467;295;7506276;-37
2023/03/24 05:26:53;;;;;;;4.30;2.80;;;;;;;-128.00;-1.00;-1.00;18476;295;7506112;-33
2023/03/24 05:29:19;;;;;;;4.80;2.70;;;;;;;-128.00;-1.00;-1.00;18912;295;7505132;-38
2023/03/24 05:31:45;;;;;;;4.40;3.00;;;;;;;-128.00;-1.00;-1.00;18862;287;7504796;-32
2023/03/24 05:34:11;;;;;;;5.80;3.30;;;;;;;-128.00;-1.00;-1.00;18492;307;7505052;-33
2023/03/24 05:36:37;;;;;;;6.50;3.70;;;;;;;-128.00;-1.00;-1.00;18502;336;7504671;-36
2023/03/24 05:39:02;;;;;;;5.00;3.60;;;;;;;-128.00;-1.00;-1.00;18485;295;7505963;-36
2023/03/24 05:41:28;;;;;;;5.70;3.50;;;;;;;-128.00;-1.00;-1.00;18509;295;7504697;-33
2023/03/24 05:43:54;;;;;;;4.30;3.80;;;;;;;-128.00;-1.00;-1.00;18502;304;7504563;-33
2023/03/24 05:46:19;;;;;;;4.90;3.20;;;;;;;-128.00;-1.00;-1.00;18494;295;7506220;-37
2023/03/24 05:48:46;;;;;;;4.50;3.20;;;;;;;-128.00;-1.00;-1.00;18890;287;7504101;-36
2023/03/24 05:51:12;;;;;;;10.10;4.70;;;;;;;-128.00;-1.00;-1.00;18881;347;7504152;-34
2023/03/24 05:53:38;;;;;;;10.20;4.20;;;;;;;-128.00;-1.00;-1.00;18890;287;7504357;-37
2023/03/24 05:56:05;;;;;;;6.40;4.40;;;;;;;-128.00;-1.00;-1.00;18883;285;7506467;-33
2023/03/24 05:58:33;;;;;;;6.20;4.20;;;;;;;-128.00;-1.00;-1.00;18485;295;7506365;-34
2023/03/24 06:00:59;;;;;;;5.70;3.60;;;;;;;-128.00;-1.00;-1.00;18474;295;7504845;-38
2023/03/24 06:03:25;;;;;;;7.10;5.00;;;;;;;-128.00;-1.00;-1.00;18879;319;7505038;-38
2023/03/24 06:05:51;;;;;;;6.70;4.60;;;;;;;-128.00;-1.00;-1.00;18891;295;7504142;-34
2023/03/24 06:08:18;;;;;;;6.60;4.30;;;;;;;-128.00;-1.00;-1.00;18875;296;7505310;-34
2023/03/24 06:10:44;;;;;;;4.70;3.80;;;;;;;-128.00;-1.00;-1.00;18486;287;7504426;-37
2023/03/24 06:13:10;;;;;;;7.70;4.00;;;;;;;-128.00;-1.00;-1.00;18507;287;7504607;-35
2023/03/24 06:15:38;;;;;;;8.10;4.80;;;;;;;-128.00;-1.00;-1.00;18469;296;7504865;-33
2023/03/24 06:18:04;;;;;;;5.60;3.70;;;;;;;-128.00;-1.00;-1.00;18473;295;7508198;-36
2023/03/24 06:20:30;;;;;;;7.20;5.10;;;;;;;-128.00;-1.00;-1.00;18479;307;7504729;-32
2023/03/24 06:22:58;;;;;;;6.40;4.80;;;;;;;-128.00;-1.00;-1.00;18490;295;7505852;-33
2023/03/24 06:25:27;;;;;;;9.80;4.40;;;;;;;-128.00;-1.00;-1.00;18492;288;7504279;-35
2023/03/24 06:27:52;;;;;;;10.90;4.50;;;;;;;-128.00;-1.00;-1.00;18493;311;7506292;-36
2023/03/24 06:30:19;;;;;;;6.90;4.70;;;;;;;-128.00;-1.00;-1.00;18478;295;7506790;-33
2023/03/24 06:32:45;;;;;;;7.60;5.00;;;;;;;-128.00;-1.00;-1.00;18498;295;7504916;-31
2023/03/24 06:35:14;;;;;;;4.90;3.90;;;;;;;-128.00;-1.00;-1.00;18465;296;7506003;-35
2023/03/24 06:37:40;;;;;;;11.50;4.40;;;;;;;-128.00;-1.00;-1.00;18468;295;7506878;-35
2023/03/24 06:40:09;;;;;;;5.90;4.70;;;;;;;-128.00;-1.00;-1.00;18460;295;7505995;-31
2023/03/24 06:42:36;;;;;;;7.70;4.50;;;;;;;-128.00;-1.00;-1.00;18485;298;7504379;-36
2023/03/24 06:45:03;;;;;;;8.00;5.20;;;;;;;-128.00;-1.00;-1.00;18473;348;7505321;-32
2023/03/24 06:47:28;;;;;;;9.10;5.20;;;;;;;-128.00;-1.00;-1.00;18470;305;7504251;-36
2023/03/24 06:49:54;;;;;;;8.70;4.40;;;;;;;-128.00;-1.00;-1.00;18505;295;7505043;-32
2023/03/24 06:52:20;;;;;;;6.30;4.70;;;;;;;-128.00;-1.00;-1.00;18478;296;7505064;-36
2023/03/24 06:54:45;;;;;;;7.10;4.50;;;;;;;-128.00;-1.00;-1.00;18459;348;7505769;-33
2023/03/24 06:57:11;;;;;;;7.10;4.10;;;;;;;-128.00;-1.00;-1.00;18482;295;7504587;-33
2023/03/24 06:59:37;;;;;;;7.60;5.30;;;;;;;-128.00;-1.00;-1.00;18456;295;7504814;-32
2023/03/24 07:02:03;;;;;;;6.80;5.30;;;;;;;-128.00;-1.00;-1.00;18878;296;7506099;-35
2023/03/24 07:04:35;;;;;;;12.10;5.30;;;;;;;-128.00;-1.00;-1.00;18906;348;7504828;-35
2023/03/24 07:07:01;;;;;;;3.80;3.40;;;;;;;-128.00;-1.00;-1.00;18476;296;7504103;-35
2023/03/24 07:09:27;;;;;;;8.10;4.50;;;;;;;-128.00;-1.00;-1.00;18471;315;7504799;-32
2023/03/24 07:11:53;;;;;;;8.30;5.20;;;;;;;-128.00;-1.00;-1.00;18894;299;7504450;-35
2023/03/24 07:14:20;;;;;;;5.80;4.40;;;;;;;-128.00;-1.00;-1.00;18867;288;7506221;-36
2023/03/24 07:16:46;;;;;;;4.80;3.80;;;;;;;-128.00;-1.00;-1.00;18476;288;7504693;-35
2023/03/24 07:19:12;;;;;;;7.20;4.40;;;;;;;-128.00;-1.00;-1.00;18492;336;7505076;-32
2023/03/24 07:21:38;;;;;;;6.10;3.70;;;;;;;-128.00;-1.00;-1.00;18438;297;7505111;-33
2023/03/24 07:24:04;;;;;;;10.50;4.30;;;;;;;-128.00;-1.00;-1.00;18901;295;7505603;-33
2023/03/24 07:26:30;;;;;;;20.90;4.50;;;;;;;-128.00;-1.00;-1.00;18878;288;7505169;-33
2023/03/24 07:28:57;;;;;;;5.30;3.40;;;;;;;-128.00;-1.00;-1.00;18846;295;7505212;-37
2023/03/24 07:31:23;;;;;;;5.30;4.10;;;;;;;-128.00;-1.00;-1.00;18887;295;7504219;-33
2023/03/24 07:33:49;;;;;;;7.50;3.50;;;;;;;-128.00;-1.00;-1.00;18905;295;7504023;-32
2023/03/24 07:36:16;;;;;;;4.00;2.80;;;;;;;-128.00;-1.00;-1.00;18865;301;7504615;-34
2023/03/24 07:38:42;;;;;;;6.50;3.90;;;;;;;-128.00;-1.00;-1.00;18871;288;7504653;-37
2023/03/24 07:41:08;;;;;;;4.30;3.70;;;;;;;-128.00;-1.00;-1.00;18876;297;7504962;-33
2023/03/24 07:43:35;;;;;;;6.20;3.40;;;;;;;-128.00;-1.00;-1.00;18855;288;7504868;-37
2023/03/24 07:46:01;;;;;;;5.30;4.50;;;;;;;-128.00;-1.00;-1.00;18895;299;7504581;-36
2023/03/24 07:48:27;;;;;;;4.60;3.10;;;;;;;-128.00;-1.00;-1.00;18911;288;7504656;-36
2023/03/24 07:50:53;;;;;;;4.50;2.90;;;;;;;-128.00;-1.00;-1.00;18900;288;7505049;-36
2023/03/24 07:53:20;;;;;;;8.60;3.10;;;;;;;-128.00;-1.00;-1.00;18858;336;7504506;-35
2023/03/24 07:55:46;;;;;;;5.40;2.40;;;;;;;-128.00;-1.00;-1.00;18467;288;7504867;-32
2023/03/24 07:58:13;;;;;;;5.20;2.50;;;;;;;-128.00;-1.00;-1.00;18474;295;7504462;-31
2023/03/24 08:00:39;;;;;;;4.60;2.70;;;;;;;-128.00;-1.00;-1.00;18453;340;7504906;-31
2023/03/24 08:03:08;;;;;;;5.50;3.10;;;;;;;-128.00;-1.00;-1.00;18498;288;7504900;-36
2023/03/24 08:05:34;;;;;;;4.40;3.10;;;;;;;-128.00;-1.00;-1.00;18493;295;7505869;-30
2023/03/24 08:07:59;;;;;;;4.50;2.60;;;;;;;-128.00;-1.00;-1.00;18487;288;7504713;-31
2023/03/24 08:10:27;;;;;;;3.30;2.60;;;;;;;-128.00;-1.00;-1.00;18859;295;7507003;-35
2023/03/24 08:12:53;;;;;;;2.70;1.80;;;;;;;-128.00;-1.00;-1.00;18455;348;7506140;-35
2023/03/24 08:15:20;;;;;;;5.10;2.30;;;;;;;-128.00;-1.00;-1.00;18466;288;7505083;-35
2023/03/24 08:17:46;;;;;;;2.90;2.10;;;;;;;-128.00;-1.00;-1.00;18479;288;7505910;-35
2023/03/24 08:20:13;;;;;;;2.90;2.00;;;;;;;-128.00;-1.00;-1.00;18487;295;7504391;-35
2023/03/24 08:22:43;;;;;;;7.10;1.90;;;;;;;-128.00;-1.00;-1.00;18475;296;7506509;-36
2023/03/24 08:25:09;;;;;;;7.50;2.60;;;;;;;-128.00;-1.00;-1.00;18458;298;7504698;-36
2023/03/24 08:27:36;;;;;;;2.90;1.70;;;;;;;-128.00;-1.00;-1.00;18460;296;7504433;-33
2023/03/24 08:30:06;;;;;;;4.60;1.90;;;;;;;-128.00;-1.00;-1.00;18486;295;7504605;-32
2023/03/24 08:32:32;;;;;;;5.10;2.10;;;;;;;-128.00;-1.00;-1.00;18479;348;7504626;-32
2023/03/24 08:34:58;;;;;;;4.40;2.10;;;;;;;-128.00;-1.00;-1.00;18479;288;7506208;-31
2023/03/24 08:37:24;;;;;;;3.20;2.40;;;;;;;-128.00;-1.00;-1.00;18870;307;7504453;-32
2023/03/24 08:39:50;;;;;;;4.00;2.00;;;;;;;-128.00;-1.00;-1.00;18876;296;7506447;-31
2023/03/24 08:42:16;;;;;;;5.20;2.40;;;;;;;-128.00;-1.00;-1.00;18877;295;7505296;-31
2023/03/24 08:44:43;;;;;;;3.80;2.40;;;;;;;-128.00;-1.00;-1.00;18852;285;7505051;-34
2023/03/24 08:47:09;;;;;;;4.00;2.20;;;;;;;-128.00;-1.00;-1.00;18461;295;7504929;-34
2023/03/24 08:49:35;;;;;;;4.80;2.00;;;;;;;-128.00;-1.00;-1.00;18502;288;7504656;-37
2023/03/24 08:52:01;;;;;;;3.50;2.30;;;;;;;-128.00;-1.00;-1.00;18864;295;7504149;-33
2023/03/24 08:54:27;;;;;;;9.60;2.10;;;;;;;-128.00;-1.00;-1.00;18871;288;7505003;-33
2023/03/24 08:56:54;;;;;;;5.10;1.90;;;;;;;-128.00;-1.00;-1.00;18883;295;7504273;-33
2023/03/24 08:59:20;;;;;;;5.30;2.20;;;;;;;-128.00;-1.00;-1.00;18862;295;7505451;-36
2023/03/24 09:01:47;;;;;;;8.10;2.50;;;;;;;-128.00;-1.00;-1.00;18897;295;7505014;-36
2023/03/24 09:04:12;;;;;;;4.60;3.00;;;;;;;-128.00;-1.00;-1.00;18475;295;7504332;-33
2023/03/24 09:06:38;;;;;;;5.40;2.00;;;;;;;-128.00;-1.00;-1.00;18875;295;7504647;-33
2023/03/24 09:09:06;;;;;;;4.70;2.30;;;;;;;-128.00;-1.00;-1.00;18870;295;7505251;-33
2023/03/24 09:11:32;;;;;;;2.80;2.20;;;;;;;-128.00;-1.00;-1.00;18480;295;7504660;-33
2023/03/24 09:13:58;;;;;;;4.20;2.60;;;;;;;-128.00;-1.00;-1.00;18465;295;7504674;-33
2023/03/24 09:16:24;;;;;;;2.60;2.40;;;;;;;-128.00;-1.00;-1.00;18448;295;7506544;-32
2023/03/24 09:18:50;;;;;;;2.50;1.90;;;;;;;-128.00;-1.00;-1.00;18452;295;7506096;-36
2023/03/24 09:21:16;;;;;;;3.70;2.40;;;;;;;-128.00;-1.00;-1.00;18477;297;7504663;-32
2023/03/24 09:23:41;;;;;;;2.60;2.30;;;;;;;-128.00;-1.00;-1.00;18476;295;7505046;-36
2023/03/24 09:26:07;;;;;;;3.20;1.50;;;;;;;-128.00;-1.00;-1.00;18490;295;7505795;-36
2023/03/24 09:28:33;;;;;;;4.50;2.60;;;;;;;-128.00;-1.00;-1.00;18460;295;7504562;-33
2023/03/24 09:31:00;;;;;;;3.60;2.30;;;;;;;-128.00;-1.00;-1.00;18463;288;7505353;-36
2023/03/24 09:33:30;;;;;;;8.80;2.90;;;;;;;-128.00;-1.00;-1.00;18482;295;7504767;-36
2023/03/24 09:35:57;;;;;;;2.70;2.00;;;;;;;-128.00;-1.00;-1.00;18486;295;7505374;-36
2023/03/24 09:38:25;;;;;;;2.60;1.60;;;;;;;-128.00;-1.00;-1.00;18475;295;7505018;-36
2023/03/24 09:40:55;;;;;;;3.00;2.00;;;;;;;-128.00;-1.00;-1.00;18462;297;7504965;-33
2023/03/24 09:43:37;;;;;;;3.40;1.80;;;;;;;-128.00;-1.00;-1.00;18469;297;7505332;-37
2023/03/24 09:46:03;;;;;;;1.80;1.60;;;;;;;-128.00;-1.00;-1.00;18469;295;7505116;-33
2023/03/24 09:48:46;;;;;;;6.40;2.70;;;;;;;-128.00;-1.00;-1.00;18491;348;7505768;-37
2023/03/24 09:51:19;;;;;;;4.00;1.70;;;;;;;-128.00;-1.00;-1.00;18483;284;7505819;-32
2023/03/24 09:53:49;;;;;;;9.70;2.40;;;;;;;-128.00;-1.00;-1.00;18453;315;7506859;-33
2023/03/24 09:56:18;;;;;;;7.50;2.80;;;;;;;-128.00;-1.00;-1.00;18463;308;7504437;-32
2023/03/24 09:58:46;;;;;;;4.50;2.40;;;;;;;-128.00;-1.00;-1.00;18513;288;7504638;-33
2023/03/24 10:01:14;;;;;;;2.90;2.00;;;;;;;-128.00;-1.00;-1.00;18467;320;7504627;-36
2023/03/24 10:03:40;;;;;;;3.00;1.60;;;;;;;-128.00;-1.00;-1.00;18485;320;7504812;-33
2023/03/24 10:06:29;;;;;;;3.30;1.50;;;;;;;-128.00;-1.00;-1.00;18478;296;7504827;-33
2023/03/24 10:09:22;;;;;;;3.40;1.40;;;;;;;-128.00;-1.00;-1.00;18478;295;7506173;-36
2023/03/24 10:12:07;;;;;;;3.40;1.00;;;;;;;-128.00;-1.00;-1.00;18454;285;7506416;-32
2023/03/24 10:14:55;;;;;;;2.40;2.20;;;;;;;-128.00;-1.00;-1.00;18466;295;7504795;-33
2023/03/24 10:17:40;;;;;;;3.00;1.70;;;;;;;-128.00;-1.00;-1.00;18494;288;7506682;-38
2023/03/24 10:20:26;;;;;;;4.30;1.80;;;;;;;-128.00;-1.00;-1.00;18456;341;7504898;-32
2023/03/24 10:23:18;;;;;;;2.10;1.30;;;;;;;-128.00;-1.00;-1.00;18478;295;7506356;-32
2023/03/24 10:26:03;;;;;;;2.80;2.30;;;;;;;-128.00;-1.00;-1.00;18466;296;7504781;-31
2023/03/24 10:28:35;;;;;;;2.60;1.30;;;;;;;-128.00;-1.00;-1.00;18461;296;7504473;-33
2023/03/24 10:31:01;;;;;;;;;;;;;;;-128.00;-1.00;-1.00;18478;288;7505800;-31
2023/03/24 10:33:28;;;;;;;1.70;1.10;;;;;;;-128.00;-1.00;-1.00;18481;296;7504200;-36
2023/03/24 10:36:04;;;;;;;2.10;1.90;;;;;;;-128.00;-1.00;-1.00;18453;295;7504016;-35
2023/03/24 10:38:30;;;;;;;2.30;1.30;;;;;;;-128.00;-1.00;-1.00;18451;308;7504951;-32
2023/03/24 10:40:56;;;;;;;2.20;1.30;;;;;;;-128.00;-1.00;-1.00;18474;344;7504659;-35
2023/03/24 10:43:22;;;;;;;3.20;1.70;;;;;;;-128.00;-1.00;-1.00;18468;295;7504619;-35
2023/03/24 10:45:50;;;;;;;2.20;2.00;;;;;;;-128.00;-1.00;-1.00;18493;295;7505782;-31
2023/03/24 10:48:40;;;;;;;1.90;1.20;;;;;;;-128.00;-1.00;-1.00;18452;296;7504608;-31
2023/03/24 10:51:10;;;;;;;3.00;2.80;;;;;;;-128.00;-1.00;-1.00;18471;347;7506448;-35
2023/03/24 10:53:36;;;;;;;1.30;0.90;;;;;;;-128.00;-1.00;-1.00;18460;288;7504682;-31
2023/03/24 10:56:02;;;;;;;1.50;0.80;;;;;;;-128.00;-1.00;-1.00;18463;295;7504900;-33
2023/03/24 10:58:34;;;;;;;1.60;1.00;;;;;;;-128.00;-1.00;-1.00;18491;288;7506538;-36
2023/03/24 11:01:00;;;;;;;1.60;1.20;;;;;;;-128.00;-1.00;-1.00;18471;295;7504804;-36
2023/03/24 11:03:29;;;;;;;0.80;0.60;;;;;;;-128.00;-1.00;-1.00;18503;295;7506241;-36
2023/03/24 11:46:25;;;;;;;2.20;0.60;;;;;;;-98.32;9.02;19654.55;98308;294;1543504;-36
2023/03/24 11:48:54;;;;;;;1.90;0.90;;;;;;;-128.00;-1.00;-1.00;97449;287;1003180;-32
2023/03/24 11:51:27;;;;;;;2.90;1.30;;;;;;;-128.00;-1.00;-1.00;97829;295;1002816;-36
2023/03/24 11:53:52;;;;;;;1.20;1.00;;;;;;;-128.00;-1.00;-1.00;97834;295;1004189;-31
2023/03/24 11:56:25;;;;;;;1.90;1.20;;;;;;;-128.00;-1.00;-1.00;97844;295;1003229;-33
2023/03/24 11:59:08;;;;;;;2.40;1.70;;;;;;;-128.00;-1.00;-1.00;97759;295;1002888;-35
2023/03/24 12:01:38;;;;;;;2.40;1.60;;;;;;;-128.00;-1.00;-1.00;97894;295;1003348;-30
2023/03/24 12:04:10;;;;;;;3.20;1.30;;;;;;;-128.00;-1.00;-1.00;97950;295;1003751;-35
2023/03/24 12:06:46;;;;;;;2.00;1.10;;;;;;;-128.00;-1.00;-1.00;97894;295;1002896;-35
2023/03/24 12:09:21;;;;;;;1.70;0.90;;;;;;;-128.00;-1.00;-1.00;97880;296;1004763;-34
2023/03/24 12:12:09;;;;;;;1.80;1.10;;;;;;;-128.00;-1.00;-1.00;97809;296;1003699;-30
2023/03/24 12:14:58;;;;;;;3.20;1.20;;;;;;;-128.00;-1.00;-1.00;97892;295;1003135;-35
2023/03/24 12:17:25;;;;;;;2.00;0.80;;;;;;;-128.00;-1.00;-1.00;97899;295;1003925;-31
2023/03/24 12:20:07;;;;;;;1.60;1.10;;;;;;;-128.00;-1.00;-1.00;98022;295;1003452;-31
2023/03/24 12:22:44;;;;;;;2.40;1.30;;;;;;;-128.00;-1.00;-1.00;97811;284;1003050;-33
2023/03/24 12:25:38;;;;;;;1.60;1.20;;;;;;;-128.00;-1.00;-1.00;97710;297;1003034;-31
2023/03/24 12:28:07;;;;;;;;;;;;;;;-128.00;-1.00;-1.00;97818;295;1003263;-35
2023/03/24 12:30:40;;;;;;;1.80;1.00;;;;;;;-128.00;-1.00;-1.00;97842;295;1004261;-37
2023/03/24 12:33:30;;;;;;;1.70;1.10;;;;;;;-128.00;-1.00;-1.00;97894;295;1002849;-32
2023/03/24 12:36:20;;;;;;;1.50;0.90;;;;;;;-128.00;-1.00;-1.00;97779;295;1003676;-35
2023/03/24 12:38:58;;;;;;;1.80;1.00;;;;;;;-128.00;-1.00;-1.00;97891;295;1003165;-31
2023/03/24 12:41:42;;;;;;;1.50;0.90;;;;;;;-128.00;-1.00;-1.00;97912;295;1003077;-38
2023/03/24 12:44:27;;;;;;;6.30;1.30;;;;;;;-128.00;-1.00;-1.00;97890;295;1002767;-37
2023/03/24 12:47:17;;;;;;;2.30;1.60;;;;;;;-128.00;-1.00;-1.00;97858;295;1003139;-35
2023/03/24 12:50:15;;;;;;;2.20;1.40;;;;;;;-128.00;-1.00;-1.00;97882;296;1005400;-35
2023/03/24 12:52:57;;;;;;;1.90;1.20;;;;;;;-128.00;-1.00;-1.00;97851;295;1004251;-35
2023/03/24 12:55:38;;;;;;;2.50;1.50;;;;;;;-128.00;-1.00;-1.00;97898;296;1002807;-35
2023/03/24 12:58:24;;;;;;;1.80;1.20;;;;;;;-128.00;-1.00;-1.00;97889;295;1005408;-32
2023/03/24 13:01:11;;;;;;;1.80;1.10;;;;;;;-128.00;-1.00;-1.00;97869;296;1002479;-35
2023/03/24 13:03:41;;;;;;;2.20;1.20;;;;;;;-128.00;-1.00;-1.00;97907;295;1002974;-30
2023/03/24 13:06:17;;;;;;;1.90;1.30;;;;;;;-128.00;-1.00;-1.00;97883;295;1002648;-35
2023/03/24 13:08:49;;;;;;;2.40;1.40;;;;;;;-128.00;-1.00;-1.00;97841;296;1004073;-30
2023/03/24 13:11:16;;;;;;;4.50;1.80;;;;;;;-128.00;-1.00;-1.00;97827;297;1004045;-36